Time;durP1;ratioP1;P1;durP2;ratioP2;P2;SDS_P1;SDS_P2;PMS_P1;PMS_P2;Temp;Humidity;BMP_temperature;BMP_pressure;BME280_temperature;BME280_humidity;BME280_pressure;Samples;Min_cycle;Max_cycle;Signal;HPM_P1;HPM_P2
2022/07/12 00:00:36;;;;;;;5.03;3.40;;;;;;;-145.18;100.00;46677.97;5012861;28;20046;-72
2022/07/12 00:03:02;;;;;;;5.80;3.77;;;;;;;-145.18;100.00;46660.41;5012696;28;20102;-72
2022/07/12 00:05:27;;;;;;;5.03;3.60;;;;;;;-145.18;100.00;46660.41;5013080;28;20092;-72
2022/07/12 00:07:52;;;;;;;8.17;5.27;;;;;;;-145.18;100.00;46660.41;5012464;28;20042;-72
2022/07/12 00:10:18;;;;;;;8.00;4.87;;;;;;;-145.18;100.00;46660.41;5012319;28;20034;-72
2022/07/12 00:12:43;;;;;;;8.97;4.93;;;;;;;-145.18;100.00;46660.41;5012420;28;20116;-72
2022/07/12 00:15:10;;;;;;;8.10;3.93;;;;;;;-145.18;100.00;46660.41;5012774;28;20117;-72
2022/07/12 00:17:35;;;;;;;4.63;3.33;;;;;;;-145.18;100.00;46660.41;5012315;28;20646;-72
2022/07/12 00:20:00;;;;;;;5.97;4.63;;;;;;;-145.18;100.00;46660.41;5012602;28;20125;-72
2022/07/12 00:22:28;;;;;;;5.77;3.77;;;;;;;-145.18;100.00;46660.41;5012231;28;20108;-72
2022/07/12 00:24:54;;;;;;;6.70;3.67;;;;;;;-145.18;100.00;46660.41;4995145;28;20038;-72
2022/07/12 00:27:19;;;;;;;5.00;3.63;;;;;;;-145.18;100.00;46660.41;5012053;28;20144;-72
2022/07/12 00:29:44;;;;;;;7.13;3.47;;;;;;;-145.18;100.00;46660.41;5012021;28;20519;-72
2022/07/12 00:32:10;;;;;;;4.80;3.57;;;;;;;-145.18;100.00;46658.44;4994444;28;20026;-72
2022/07/12 00:34:36;;;;;;;6.13;3.67;;;;;;;-145.18;100.00;46660.41;5011978;28;20030;-72
2022/07/12 00:37:01;;;;;;;4.60;2.87;;;;;;;-145.18;100.00;46660.41;5011730;28;20060;-72
2022/07/12 00:39:26;;;;;;;5.77;3.10;;;;;;;-145.18;100.00;46660.41;5011312;28;20049;-72
2022/07/12 00:41:52;;;;;;;6.00;2.70;;;;;;;-145.18;100.00;46660.41;4994442;28;20037;-72
2022/07/12 00:44:17;;;;;;;4.37;2.20;;;;;;;-145.18;100.00;46660.41;5011840;28;20069;-73
2022/07/12 00:46:43;;;;;;;6.90;3.03;;;;;;;-145.18;100.00;46676.03;5011623;28;20081;-72
2022/07/12 00:49:09;;;;;;;5.00;3.30;;;;;;;-145.18;100.00;46638.91;5012105;28;20383;-72
2022/07/12 00:51:34;;;;;;;5.30;3.83;;;;;;;-145.18;100.00;46660.41;5011611;28;20503;-72
2022/07/12 00:53:59;;;;;;;6.00;4.60;;;;;;;-145.18;100.00;46660.41;4994145;28;20037;-72
2022/07/12 00:56:25;;;;;;;7.07;4.07;;;;;;;-145.18;100.00;46660.41;5011302;28;20180;-72
2022/07/12 00:58:51;;;;;;;3.50;2.57;;;;;;;-145.18;100.00;46660.41;5011265;28;20094;-72
2022/07/12 01:01:17;;;;;;;5.33;2.83;;;;;;;-145.18;100.00;46660.41;5011574;28;20049;-72
2022/07/12 01:03:42;;;;;;;3.00;2.07;;;;;;;-145.18;100.00;46660.41;5011598;28;20034;-72
2022/07/12 01:06:08;;;;;;;3.50;2.20;;;;;;;-145.18;100.00;46660.41;5011444;28;20390;-72
2022/07/12 01:08:34;;;;;;;3.10;2.77;;;;;;;-145.18;100.00;46660.41;5011002;28;20069;-73
2022/07/12 01:11:00;;;;;;;4.93;3.53;;;;;;;-145.18;100.00;46660.41;5011713;28;20022;-72
2022/07/12 01:13:25;;;;;;;8.63;4.40;;;;;;;-145.18;100.00;46660.41;5011218;28;20036;-72
2022/07/12 01:15:52;;;;;;;5.47;4.37;;;;;;;-145.18;100.00;46660.41;5007803;28;20033;-72
2022/07/12 01:18:18;;;;;;;8.53;4.20;;;;;;;-145.18;100.00;46660.41;4989541;28;20093;-72
2022/07/12 01:20:45;;;;;;;7.53;5.13;;;;;;;-145.18;100.00;46660.41;4991592;28;20045;-72
2022/07/12 01:23:12;;;;;;;9.57;4.87;;;;;;;-145.18;100.00;46660.41;4991610;28;20034;-72
2022/07/12 01:25:37;;;;;;;7.37;4.40;;;;;;;-145.18;100.00;46660.41;4991738;28;20034;-72
2022/07/12 01:28:03;;;;;;;7.03;4.30;;;;;;;-145.18;100.00;46660.41;4991377;28;20623;-73
2022/07/12 01:30:29;;;;;;;6.10;4.23;;;;;;;-145.18;100.00;46660.41;4991641;28;20125;-73
2022/07/12 01:32:54;;;;;;;5.77;3.80;;;;;;;-145.18;100.00;46660.41;4991206;28;20109;-72
2022/07/12 01:35:21;;;;;;;5.00;4.27;;;;;;;-145.18;100.00;46660.41;4991821;28;20101;-72
2022/07/12 01:37:47;;;;;;;8.73;5.40;;;;;;;-145.18;100.00;46660.41;4991259;28;20030;-72
2022/07/12 01:40:14;;;;;;;7.47;5.80;;;;;;;-145.18;100.00;46660.41;4991463;28;20041;-72
2022/07/12 01:42:40;;;;;;;9.67;5.53;;;;;;;-145.18;100.00;46660.41;4991039;28;20030;-72
2022/07/12 01:45:07;;;;;;;5.63;5.03;;;;;;;-145.18;100.00;46660.41;4991700;28;20034;-72
2022/07/12 01:47:33;;;;;;;8.23;5.37;;;;;;;-145.18;100.00;46660.41;4990886;28;20043;-72
2022/07/12 01:49:59;;;;;;;7.10;5.63;;;;;;;-145.18;100.00;46660.41;4991213;28;20409;-72
2022/07/12 01:52:25;;;;;;;6.57;5.87;;;;;;;-145.18;100.00;46660.41;4974037;28;20031;-72
2022/07/12 01:54:52;;;;;;;8.37;6.30;;;;;;;-145.18;100.00;46660.41;4991050;28;20053;-72
2022/07/12 01:57:19;;;;;;;13.10;7.53;;;;;;;-145.18;100.00;46660.41;4991299;28;20035;-72
2022/07/12 01:59:45;;;;;;;15.57;8.80;;;;;;;-145.18;100.00;46660.41;4996990;28;20042;-72
2022/07/12 02:02:10;;;;;;;21.27;8.27;;;;;;;-145.18;100.00;46660.41;5432892;23;20167;-72
2022/07/12 02:04:36;;;;;;;15.73;7.93;;;;;;;-145.18;100.00;46660.41;4983269;28;20599;-72
2022/07/12 02:07:04;;;;;;;12.53;6.97;;;;;;;-145.18;100.00;46660.41;4987807;28;20027;-72
2022/07/12 02:09:29;;;;;;;8.93;6.27;;;;;;;-145.18;100.00;46660.41;4990099;28;20042;-72
2022/07/12 02:11:54;;;;;;;10.97;6.23;;;;;;;-145.18;100.00;46660.41;4990017;28;20064;-72
2022/07/12 02:14:21;;;;;;;10.53;6.33;;;;;;;-145.18;100.00;46660.41;4990161;28;20026;-72
2022/07/12 02:16:47;;;;;;;11.50;6.77;;;;;;;-145.18;100.00;46660.41;4990119;28;20069;-72
2022/07/12 02:19:13;;;;;;;8.30;5.63;;;;;;;-145.18;100.00;46660.41;4990357;28;20571;-72
2022/07/12 02:21:39;;;;;;;9.23;5.63;;;;;;;-145.18;100.00;46660.41;4971087;28;20122;-73
2022/07/12 02:24:06;;;;;;;9.37;6.10;;;;;;;-145.18;100.00;46660.41;4970892;28;20398;-72
2022/07/12 02:26:38;;;;;;;9.67;4.90;;;;;;;-145.18;100.00;46660.41;4971241;28;20043;-72
2022/07/12 02:29:04;;;;;;;8.47;5.67;;;;;;;-145.18;100.00;46660.41;4969367;28;20042;-73
2022/07/12 02:31:30;;;;;;;10.13;5.53;;;;;;;-145.18;100.00;46660.41;4971079;28;20031;-72
2022/07/12 02:33:55;;;;;;;5.87;4.17;;;;;;;-145.18;100.00;46660.41;4970743;28;20391;-72
2022/07/12 02:36:21;;;;;;;6.37;5.13;;;;;;;-145.18;100.00;46660.41;4971442;28;20403;-73
2022/07/12 02:38:47;;;;;;;7.87;5.00;;;;;;;-145.18;100.00;46660.41;4970549;28;20061;-73
2022/07/12 02:41:12;;;;;;;8.93;6.30;;;;;;;-145.18;100.00;46660.41;4970716;28;20066;-72
2022/07/12 02:43:37;;;;;;;6.43;4.60;;;;;;;-145.18;100.00;46660.41;4970725;28;20035;-72
2022/07/12 02:46:06;;;;;;;9.23;4.73;;;;;;;-145.18;100.00;46660.41;4970954;28;20089;-72
2022/07/12 02:48:31;;;;;;;6.33;5.23;;;;;;;-145.18;100.00;46660.41;4970834;28;20041;-72
2022/07/12 02:50:56;;;;;;;5.63;4.43;;;;;;;-145.18;100.00;46660.41;4970679;28;20039;-72
2022/07/12 02:53:22;;;;;;;6.40;4.67;;;;;;;-145.18;100.00;46660.41;4970541;28;20069;-72
2022/07/12 02:55:48;;;;;;;6.27;5.67;;;;;;;-145.18;100.00;46660.41;4971056;28;20035;-72
2022/07/12 02:58:14;;;;;;;5.47;4.13;;;;;;;-145.18;100.00;46660.41;4971055;28;20042;-72
2022/07/12 03:00:40;;;;;;;7.53;5.30;;;;;;;-145.18;100.00;46660.41;4970907;28;20403;-72
2022/07/12 03:03:07;;;;;;;6.87;4.60;;;;;;;-145.18;100.00;46660.41;4992044;28;20057;-73
2022/07/12 03:05:34;;;;;;;7.07;5.00;;;;;;;-145.18;100.00;46660.41;4994470;28;20145;-73
2022/07/12 03:07:59;;;;;;;8.03;5.37;;;;;;;-145.18;100.00;46660.41;4993787;28;20450;-73
2022/07/12 03:10:25;;;;;;;7.87;5.43;;;;;;;-145.18;100.00;46660.41;4994263;28;20046;-73
2022/07/12 03:12:50;;;;;;;7.30;5.80;;;;;;;-145.18;100.00;46660.41;4993382;28;20367;-73
2022/07/12 03:15:16;;;;;;;7.70;5.93;;;;;;;-145.18;100.00;46660.41;4992938;28;20129;-72
2022/07/12 03:17:42;;;;;;;8.43;6.57;;;;;;;-145.18;100.00;46660.41;4993070;28;20026;-73
2022/07/12 03:20:11;;;;;;;8.13;6.40;;;;;;;-145.18;100.00;46660.41;4993401;28;20030;-72
2022/07/12 03:22:37;;;;;;;8.37;6.73;;;;;;;-145.18;100.00;46660.41;4975552;28;20198;-72
2022/07/12 03:25:03;;;;;;;7.57;5.90;;;;;;;-145.18;100.00;46660.41;4993458;28;20485;-72
2022/07/12 03:27:28;;;;;;;9.77;6.77;;;;;;;-145.18;100.00;46658.44;4992581;28;20040;-72
2022/07/12 03:29:53;;;;;;;8.30;5.97;;;;;;;-145.18;100.00;46660.41;4993183;28;20058;-72
2022/07/12 03:32:19;;;;;;;7.50;6.63;;;;;;;-145.18;100.00;46660.41;4992440;28;20117;-72
2022/07/12 03:34:44;;;;;;;7.73;6.73;;;;;;;-145.18;100.00;46660.41;4993202;28;20070;-72
2022/07/12 03:37:09;;;;;;;8.07;4.80;;;;;;;-145.18;100.00;46658.44;4993293;28;20057;-72
2022/07/12 03:39:35;;;;;;;5.10;4.60;;;;;;;-145.18;100.00;46660.41;4992958;28;20093;-72
2022/07/12 03:42:00;;;;;;;6.73;4.70;;;;;;;-145.18;100.00;46660.41;4993196;28;20108;-73
2022/07/12 03:44:25;;;;;;;7.77;5.23;;;;;;;-145.18;100.00;46656.50;4992961;28;20026;-73
2022/07/12 03:46:51;;;;;;;11.10;5.50;;;;;;;-145.18;100.00;46660.41;4992837;28;20093;-72
2022/07/12 03:49:16;;;;;;;10.03;6.27;;;;;;;-145.18;100.00;46658.44;4992711;28;20038;-72
2022/07/12 03:51:42;;;;;;;8.50;5.50;;;;;;;-145.18;100.00;46660.41;4993097;28;20042;-72
2022/07/12 03:54:07;;;;;;;8.03;6.53;;;;;;;-145.18;100.00;46660.41;4992683;28;20097;-72
2022/07/12 03:59:21;;;;;;;8.77;7.43;;;;;;;-145.18;100.00;46652.59;4992678;28;20112;-72
2022/07/12 04:01:47;;;;;;;13.27;8.90;;;;;;;-145.18;100.00;46652.59;4993250;28;20031;-72
2022/07/12 04:04:13;;;;;;;9.07;6.50;;;;;;;-145.18;100.00;46654.53;4992308;28;20054;-72
2022/07/12 04:06:41;;;;;;;10.10;6.60;;;;;;;-145.18;100.00;46654.53;4993111;28;20857;-72
2022/07/12 04:09:07;;;;;;;8.40;6.00;;;;;;;-145.18;100.00;46654.53;4992727;28;20038;-72
2022/07/12 04:11:33;;;;;;;7.73;6.17;;;;;;;-145.18;100.00;46654.53;4992928;28;20042;-72
2022/07/12 04:13:59;;;;;;;9.07;5.47;;;;;;;-145.18;100.00;46656.50;4991833;28;20085;-72
2022/07/12 04:16:26;;;;;;;9.30;6.00;;;;;;;-145.18;100.00;46652.59;4992846;28;20023;-72
2022/07/12 04:18:51;;;;;;;8.30;5.83;;;;;;;-145.18;100.00;46652.59;4991704;28;20117;-72
2022/07/12 04:21:17;;;;;;;6.47;4.83;;;;;;;-145.18;100.00;46658.44;4992550;28;20118;-73
2022/07/12 04:23:42;;;;;;;10.53;6.00;;;;;;;-145.18;100.00;46656.50;4998833;28;20066;-74
2022/07/12 04:26:07;;;;;;;9.53;6.67;;;;;;;-145.18;100.00;46658.44;5011610;28;20026;-73
2022/07/12 04:28:35;;;;;;;13.97;8.73;;;;;;;-145.18;100.00;46660.41;5010768;28;20038;-72
2022/07/12 04:31:00;;;;;;;11.00;8.57;;;;;;;-145.18;100.00;46660.41;5011718;28;20096;-73
2022/07/12 04:33:26;;;;;;;11.03;7.67;;;;;;;-145.18;100.00;46660.41;5011322;28;20034;-73
2022/07/12 04:35:51;;;;;;;11.70;7.60;;;;;;;-145.18;100.00;46658.44;4991565;28;20021;-72
2022/07/12 04:38:16;;;;;;;10.27;6.90;;;;;;;-145.18;100.00;46658.44;5009870;28;20044;-72
2022/07/12 04:40:42;;;;;;;9.30;7.27;;;;;;;-145.18;100.00;46658.44;5008087;28;20073;-72
2022/07/12 04:43:07;;;;;;;9.87;7.87;;;;;;;-145.18;100.00;46656.50;5009885;28;20030;-75
2022/07/12 04:45:32;;;;;;;15.83;9.23;;;;;;;-145.18;100.00;46656.50;5010330;28;20084;-73
2022/07/12 04:47:58;;;;;;;9.67;8.53;;;;;;;-145.18;100.00;46654.53;5007608;28;20117;-74
2022/07/12 04:50:23;;;;;;;14.93;8.50;;;;;;;-145.18;100.00;46654.53;5009778;28;20066;-74
2022/07/12 04:52:49;;;;;;;18.37;10.13;;;;;;;-145.18;100.00;46642.81;5009176;28;20030;-74
2022/07/12 04:55:14;;;;;;;19.97;9.43;;;;;;;-145.18;100.00;46650.63;5011379;28;20076;-73
2022/07/12 04:57:40;;;;;;;10.50;8.63;;;;;;;-145.18;100.00;46656.50;5011251;28;20026;-74
2022/07/12 05:00:07;;;;;;;13.93;8.93;;;;;;;-145.18;100.00;46650.63;5010941;28;20042;-74
2022/07/12 05:02:33;;;;;;;12.97;9.13;;;;;;;-145.18;100.00;46636.94;5010241;28;20046;-73
2022/07/12 05:04:59;;;;;;;15.50;10.20;;;;;;;-145.18;100.00;46640.88;5006795;28;20113;-73
2022/07/12 05:07:24;;;;;;;12.40;10.20;;;;;;;-145.18;100.00;46640.88;5007288;28;20465;-74
2022/07/12 05:09:51;;;;;;;13.27;11.87;;;;;;;-145.18;100.00;46636.94;5009422;28;20080;-73
2022/07/12 05:12:16;;;;;;;14.27;11.13;;;;;;;-145.18;100.00;46636.94;5010489;28;20502;-73
2022/07/12 05:14:42;;;;;;;16.43;11.93;;;;;;;-145.18;100.00;46635.00;5009478;28;20030;-72
2022/07/12 05:17:07;;;;;;;17.73;14.00;;;;;;;-145.18;100.00;46638.91;5009776;28;20045;-73
2022/07/12 05:19:33;;;;;;;17.13;13.70;;;;;;;-145.18;100.00;46593.97;5010233;28;20033;-73
2022/07/12 05:21:58;;;;;;;16.03;14.33;;;;;;;-145.18;100.00;46636.94;5010606;28;20069;-73
2022/07/12 05:24:23;;;;;;;15.70;14.20;;;;;;;-145.18;100.00;46597.88;5009927;28;20498;-73
2022/07/12 05:26:49;;;;;;;16.63;13.17;;;;;;;-145.18;100.00;46597.88;5010398;28;20406;-73
2022/07/12 05:29:14;;;;;;;16.87;13.53;;;;;;;-145.18;100.00;46597.88;5009667;28;20052;-73
2022/07/12 05:31:40;;;;;;;14.50;12.67;;;;;;;-145.18;100.00;46597.88;5010420;28;20030;-73
2022/07/12 05:34:05;;;;;;;16.93;13.40;;;;;;;-145.18;100.00;46603.75;5009917;28;20034;-73
2022/07/12 05:36:30;;;;;;;16.07;13.00;;;;;;;-145.18;100.00;46603.75;5010564;28;20042;-73
2022/07/12 05:38:56;;;;;;;13.97;12.57;;;;;;;-145.18;100.00;46607.66;4991750;28;20514;-73
2022/07/12 05:41:21;;;;;;;14.33;12.83;;;;;;;-145.18;100.00;46601.78;5009695;28;20044;-73
2022/07/12 05:43:46;;;;;;;13.90;12.60;;;;;;;-145.18;100.00;46601.78;5008438;28;20057;-73
2022/07/12 05:46:12;;;;;;;14.17;12.50;;;;;;;-145.18;100.00;46603.75;4992187;28;20038;-73
2022/07/12 05:48:38;;;;;;;15.73;13.00;;;;;;;-145.18;100.00;46605.69;5009923;28;20148;-73
2022/07/12 05:53:48;;;;;;;13.73;12.33;;;;;;;-145.18;100.00;46607.66;5007922;28;20120;-73
2022/07/12 05:56:13;;;;;;;15.20;13.60;;;;;;;-145.18;100.00;46613.50;5009659;28;20038;-73
2022/07/12 05:58:39;;;;;;;15.03;13.63;;;;;;;-145.18;100.00;46611.56;5009754;28;20030;-73
2022/07/12 06:01:05;;;;;;;13.77;12.50;;;;;;;-145.18;100.00;46611.56;5009273;28;20057;-73
2022/07/12 06:03:31;;;;;;;14.53;13.07;;;;;;;-145.18;100.00;46613.50;5008963;28;20190;-73
2022/07/12 06:05:56;;;;;;;18.47;13.17;;;;;;;-145.18;100.00;46615.47;5009904;28;20038;-73
2022/07/12 06:08:21;;;;;;;16.53;13.30;;;;;;;-145.18;100.00;46609.59;5009683;28;20042;-73
2022/07/12 06:10:47;;;;;;;18.60;12.90;;;;;;;-145.18;100.00;46615.47;5008936;28;20049;-73
2022/07/12 06:13:12;;;;;;;14.17;12.27;;;;;;;-145.18;100.00;46617.41;5009551;28;20072;-73
2022/07/12 06:15:38;;;;;;;14.63;12.37;;;;;;;-145.18;100.00;46619.38;5009608;28;20103;-73
2022/07/12 06:18:03;;;;;;;15.33;13.73;;;;;;;-145.18;100.00;46615.47;5009379;28;20120;-73
2022/07/12 06:20:29;;;;;;;15.30;13.70;;;;;;;-145.18;100.00;46617.41;5009261;28;20038;-73
2022/07/12 06:22:55;;;;;;;15.50;12.87;;;;;;;-145.18;100.00;46619.38;5005299;28;20190;-73
2022/07/12 06:25:21;;;;;;;14.60;13.00;;;;;;;-145.18;100.00;46615.47;4998188;28;20065;-73
2022/07/12 06:27:47;;;;;;;12.97;11.77;;;;;;;-145.18;100.00;46617.41;4989866;28;20026;-73
2022/07/12 06:30:17;;;;;;;14.10;12.63;;;;;;;-145.18;100.00;46621.31;4989782;28;20046;-73
2022/07/12 06:32:46;;;;;;;14.47;13.03;;;;;;;-145.18;100.00;46623.28;4989530;28;20088;-73
2022/07/12 06:35:13;;;;;;;17.10;13.10;;;;;;;-145.18;100.00;46623.28;4989980;28;20117;-73
2022/07/12 06:37:38;;;;;;;16.43;13.03;;;;;;;-145.18;100.00;46625.22;4975161;28;20399;-73
2022/07/12 06:40:04;;;;;;;15.37;12.43;;;;;;;-145.18;100.00;46623.28;5009284;28;20034;-73
2022/07/12 06:42:30;;;;;;;15.43;13.87;;;;;;;-145.18;100.00;46629.13;5033578;28;20045;-73
2022/07/12 06:44:55;;;;;;;18.37;13.40;;;;;;;-145.18;100.00;46629.13;5014716;28;20030;-73
2022/07/12 06:47:21;;;;;;;15.63;13.73;;;;;;;-145.18;100.00;46625.22;5024235;28;20065;-73
2022/07/12 06:49:46;;;;;;;14.00;12.50;;;;;;;-145.18;100.00;46625.22;5012742;28;20118;-73
2022/07/12 06:52:11;;;;;;;16.47;13.17;;;;;;;-145.18;100.00;46625.22;5013487;28;20044;-73
2022/07/12 06:54:37;;;;;;;15.10;13.57;;;;;;;-145.18;100.00;46629.13;5013412;28;20048;-73
2022/07/12 06:57:02;;;;;;;14.83;13.33;;;;;;;-145.18;100.00;46625.22;5012548;28;20121;-73
2022/07/12 06:59:28;;;;;;;14.93;13.13;;;;;;;-145.18;100.00;46629.13;5012893;28;20030;-73
2022/07/12 07:01:55;;;;;;;16.17;14.47;;;;;;;-145.18;100.00;46629.13;5010045;28;20132;-73
2022/07/12 07:04:21;;;;;;;17.37;15.33;;;;;;;-145.18;100.00;46629.13;5012402;28;20058;-73
2022/07/12 07:06:46;;;;;;;17.57;15.40;;;;;;;-145.18;100.00;46629.13;5013192;28;20513;-73
2022/07/12 07:09:12;;;;;;;18.13;15.53;;;;;;;-145.18;100.00;46633.06;5012305;28;20057;-73
2022/07/12 07:11:37;;;;;;;21.43;15.27;;;;;;;-145.18;100.00;46633.06;4995758;28;20133;-73
2022/07/12 07:14:03;;;;;;;19.73;14.67;;;;;;;-145.18;100.00;46635.00;5012382;28;20034;-72
2022/07/12 07:16:29;;;;;;;17.80;16.00;;;;;;;-145.18;100.00;46633.06;5013352;28;20034;-74
2022/07/12 07:18:55;;;;;;;22.60;16.87;;;;;;;-145.18;100.00;46635.00;5012034;28;20046;-73
2022/07/12 07:21:20;;;;;;;20.33;16.87;;;;;;;-145.18;100.00;46636.94;5013269;28;20061;-73
2022/07/12 07:23:46;;;;;;;20.40;16.50;;;;;;;-145.18;100.00;46636.94;5012930;28;20086;-73
2022/07/12 07:26:11;;;;;;;17.20;15.40;;;;;;;-145.18;100.00;46635.00;5012277;28;20095;-73
2022/07/12 07:30:52;;;;;;;20.40;15.50;;;;;;;-145.18;100.00;46640.88;5012886;28;20111;-73
2022/07/12 07:31:22;;;;;;;18.67;14.95;;;;;;;-145.18;100.00;46638.91;5012582;28;20033;-72
2022/07/12 07:33:47;;;;;;;17.00;14.97;;;;;;;-145.18;100.00;46638.91;5012768;28;20502;-73
2022/07/12 07:36:13;;;;;;;15.93;14.33;;;;;;;-145.18;100.00;46638.91;4995329;28;20189;-73
2022/07/12 07:38:38;;;;;;;17.33;14.37;;;;;;;-145.18;100.00;46638.91;5012547;28;20471;-73
2022/07/12 07:41:04;;;;;;;16.33;14.73;;;;;;;-145.18;100.00;46644.78;5013125;28;20128;-73
2022/07/12 07:43:29;;;;;;;16.13;14.43;;;;;;;-145.18;100.00;46642.81;5012311;28;20497;-73
2022/07/12 07:45:54;;;;;;;17.07;13.50;;;;;;;-145.18;100.00;46644.78;5012616;28;20069;-73
2022/07/12 07:48:20;;;;;;;15.53;13.87;;;;;;;-145.18;100.00;46642.81;5011820;28;20117;-73
2022/07/12 07:50:45;;;;;;;12.80;11.50;;;;;;;-145.18;100.00;46644.78;5012367;28;20706;-73
2022/07/12 07:53:11;;;;;;;18.90;12.60;;;;;;;-145.18;100.00;46644.78;5012581;28;20030;-73
2022/07/12 07:55:36;;;;;;;12.57;11.30;;;;;;;-145.18;100.00;46648.69;5012389;28;20037;-72
2022/07/12 07:58:02;;;;;;;13.60;11.07;;;;;;;-145.18;100.00;46652.59;5012110;28;20060;-73
2022/07/12 08:00:28;;;;;;;15.73;11.97;;;;;;;-145.18;100.00;46654.53;5012017;28;20056;-73
2022/07/12 08:02:57;;;;;;;13.57;12.17;;;;;;;-145.18;100.00;46656.50;5011884;28;20042;-72
2022/07/12 08:05:22;;;;;;;12.67;11.37;;;;;;;-145.18;100.00;46656.50;5011980;28;20175;-73
2022/07/12 08:07:48;;;;;;;12.13;11.00;;;;;;;-145.18;100.00;46656.50;5011491;28;20121;-73
2022/07/12 08:10:13;;;;;;;13.30;11.80;;;;;;;-145.18;100.00;46660.41;5011724;28;20042;-73
2022/07/12 08:12:38;;;;;;;12.77;11.47;;;;;;;-145.18;100.00;46658.44;5012306;28;20045;-72
2022/07/12 08:15:04;;;;;;;15.63;12.47;;;;;;;-145.18;100.00;46652.59;5011678;28;20033;-73
2022/07/12 08:17:29;;;;;;;13.87;11.43;;;;;;;-145.18;100.00;46656.50;5012323;28;20117;-73
2022/07/12 08:19:55;;;;;;;18.07;12.33;;;;;;;-145.18;100.00;46664.31;5011478;28;20136;-73
2022/07/12 08:22:21;;;;;;;14.10;11.60;;;;;;;-145.18;100.00;46666.25;5012186;28;20046;-72
2022/07/12 08:24:46;;;;;;;13.87;11.57;;;;;;;-145.18;100.00;46664.31;5011518;28;20490;-72
2022/07/12 08:27:11;;;;;;;11.90;10.70;;;;;;;-145.18;100.00;46664.31;5012049;28;20061;-73
2022/07/12 08:29:37;;;;;;;12.50;10.50;;;;;;;-145.18;100.00;46662.34;5011449;28;20460;-73
2022/07/12 08:32:02;;;;;;;12.03;10.30;;;;;;;-145.18;100.00;46664.31;5011868;28;20042;-72
2022/07/12 08:34:29;;;;;;;10.37;9.37;;;;;;;-145.18;100.00;46664.31;5011393;28;20497;-72
2022/07/12 08:36:54;;;;;;;12.40;10.10;;;;;;;-145.18;100.00;46664.31;5011589;28;20037;-72
2022/07/12 08:39:19;;;;;;;13.53;10.30;;;;;;;-145.18;100.00;46666.25;5011487;28;20056;-73
2022/07/12 08:41:45;;;;;;;16.77;10.60;;;;;;;-145.18;100.00;46666.25;5011926;28;20065;-72
2022/07/12 08:44:10;;;;;;;15.73;10.47;;;;;;;-145.18;100.00;46666.25;5011002;28;20034;-73
2022/07/12 08:46:36;;;;;;;15.70;11.17;;;;;;;-145.18;100.00;46662.34;5012046;28;20038;-72
2022/07/12 08:49:07;;;;;;;12.43;11.07;;;;;;;-145.18;100.00;46666.25;5011213;28;20042;-73
2022/07/12 08:51:32;;;;;;;15.47;11.97;;;;;;;-145.18;100.00;46662.34;5011391;28;20034;-72
2022/07/12 08:54:09;;;;;;;13.10;11.70;;;;;;;-145.18;100.00;46642.81;5010914;28;20034;-73
2022/07/12 08:56:37;;;;;;;15.60;11.37;;;;;;;-145.18;100.00;46595.94;5011294;28;20057;-73
2022/07/12 08:59:14;;;;;;;11.73;10.47;;;;;;;-145.18;100.00;46531.47;5009805;28;20097;-72
2022/07/12 09:01:52;;;;;;;11.57;10.37;;;;;;;-145.18;100.00;46535.38;5011268;28;20117;-72
2022/07/12 09:04:25;;;;;;;12.20;10.23;;;;;;;-145.18;100.00;46539.28;5010703;28;20052;-73
2022/07/12 09:06:51;;;;;;;11.50;10.40;;;;;;;-145.18;100.00;46529.53;5010995;28;20565;-73
2022/07/12 09:09:33;;;;;;;12.20;10.00;;;;;;;-145.18;100.00;46533.44;5010743;28;20042;-72
2022/07/12 09:11:59;;;;;;;15.23;10.00;;;;;;;-145.18;100.00;46533.44;5010650;28;20026;-73
2022/07/12 09:14:26;;;;;;;10.60;9.60;;;;;;;-145.18;100.00;46531.47;5011220;28;20037;-72
2022/07/12 09:17:09;;;;;;;12.23;10.00;;;;;;;-145.18;100.00;46529.53;5011131;28;20042;-72
2022/07/12 09:19:36;;;;;;;11.93;10.53;;;;;;;-145.18;100.00;46535.38;5010632;28;20045;-73
2022/07/12 09:22:03;;;;;;;13.03;10.30;;;;;;;-145.18;100.00;46527.56;5010823;28;20033;-72
2022/07/12 09:24:29;;;;;;;12.50;9.50;;;;;;;-145.18;100.00;46517.81;5010655;28;20506;-72
2022/07/12 09:27:01;;;;;;;9.05;8.15;;;;;;;-145.18;100.00;46515.84;5010844;28;20022;-72
2022/07/12 09:29:26;;;;;;;10.48;8.73;;;;;;;-145.18;100.00;46519.75;4992616;28;20430;-72
2022/07/12 09:37:21;;;;;;;9.82;7.47;;;;;;;-145.18;100.00;46549.06;5011197;28;20044;-72
2022/07/12 09:39:51;;;;;;;9.38;8.50;;;;;;;-145.18;100.00;46515.84;5010565;28;20037;-72
2022/07/12 09:42:18;;;;;;;12.30;9.18;;;;;;;-145.18;100.00;46539.28;5010629;28;20037;-72
2022/07/12 09:44:43;;;;;;;9.35;8.45;;;;;;;-145.18;100.00;46531.47;5010273;28;20497;-72
2022/07/12 09:47:13;;;;;;;9.23;8.07;;;;;;;-145.18;100.00;46519.75;5010390;28;20030;-72
2022/07/12 09:49:42;;;;;;;9.35;7.85;;;;;;;-145.18;100.00;46513.91;5010462;28;20398;-72
2022/07/12 09:52:12;;;;;;;9.00;7.97;;;;;;;-145.18;100.00;46795.19;5010552;28;20033;-72
2022/07/12 09:54:40;;;;;;;12.18;8.70;;;;;;;-145.18;100.00;46502.19;5010109;28;20084;-72
2022/07/12 09:57:15;;;;;;;11.82;8.57;;;;;;;-145.18;100.00;46515.84;5010250;28;20030;-72
2022/07/12 09:59:40;;;;;;;10.40;7.73;;;;;;;-145.18;100.00;46935.81;5010302;28;20038;-72
2022/07/12 10:02:06;;;;;;;7.88;6.10;;;;;;;-145.18;100.00;47097.97;5010788;28;20084;-72
2022/07/12 10:04:32;;;;;;;10.63;7.75;;;;;;;-145.18;100.00;47111.66;5010009;28;20045;-72
2022/07/12 10:06:58;;;;;;;8.77;7.97;;;;;;;-145.18;100.00;46695.56;4992680;28;20033;-72
2022/07/12 10:09:25;;;;;;;10.30;7.80;;;;;;;-145.18;100.00;47068.66;5009758;28;20446;-72
2022/07/12 10:11:52;;;;;;;10.88;5.95;;;;;;;-145.18;100.00;47039.34;5009665;28;20491;-72
2022/07/12 10:14:19;;;;;;;11.85;8.00;;;;;;;-145.18;100.00;47051.09;5009977;28;20034;-72
2022/07/12 10:16:45;;;;;;;10.23;8.43;;;;;;;-145.18;100.00;47103.81;5010255;28;20100;-72
2022/07/12 10:19:35;;;;;;;7.07;5.32;;;;;;;-145.18;100.00;47049.13;5008934;28;20033;-72
2022/07/12 10:22:02;;;;;;;8.50;7.13;;;;;;;-145.18;100.00;47101.88;5008696;28;20026;-72
2022/07/12 10:24:48;;;;;;;10.82;7.68;;;;;;;-145.18;100.00;47025.69;5007913;28;20037;-72
2022/07/12 10:27:14;;;;;;;8.75;7.95;;;;;;;-145.18;100.00;47047.19;5009373;28;20034;-72
2022/07/12 10:29:46;;;;;;;9.52;8.52;;;;;;;-145.18;100.00;47025.69;5009281;28;20036;-72
2022/07/12 10:32:24;;;;;;;8.60;7.22;;;;;;;-145.18;100.00;47004.19;5009564;28;20037;-72
2022/07/12 10:34:58;;;;;;;17.13;6.88;;;;;;;-145.18;100.00;47015.91;5008039;28;20502;-72
2022/07/12 10:37:24;;;;;;;9.10;6.88;;;;;;;-145.18;100.00;47006.16;5010019;28;20115;-72
2022/07/12 10:40:11;;;;;;;6.72;5.95;;;;;;;-145.18;100.00;47051.09;5009773;28;20126;-72
2022/07/12 10:42:37;;;;;;;5.93;5.38;;;;;;;-145.18;100.00;46986.63;5009926;28;20394;-72
2022/07/12 10:45:15;;;;;;;5.50;5.00;;;;;;;-145.18;100.00;46980.75;5009200;28;20045;-72
2022/07/12 10:47:54;;;;;;;8.82;5.93;;;;;;;-145.18;100.00;46974.91;4992245;28;20467;-72
2022/07/12 10:50:40;;;;;;;7.13;6.35;;;;;;;-145.18;100.00;46969.03;5009309;28;20034;-72
2022/07/12 10:53:27;;;;;;;7.80;5.05;;;;;;;-145.18;100.00;46982.72;5008291;28;20038;-72
2022/07/12 10:56:04;;;;;;;5.70;4.90;;;;;;;-145.18;100.00;46965.13;5009369;28;20038;-73
2022/07/12 10:58:38;;;;;;;5.95;5.25;;;;;;;-145.18;100.00;46957.31;5009659;28;20129;-72
2022/07/12 11:01:07;;;;;;;9.45;6.28;;;;;;;-145.18;100.00;46953.41;4972967;28;20105;-72
2022/07/12 11:03:41;;;;;;;7.45;5.97;;;;;;;-145.18;100.00;46949.50;5008787;28;20380;-72
2022/07/12 11:06:09;;;;;;;9.10;5.35;;;;;;;-145.18;100.00;46933.88;5008917;28;20061;-72
2022/07/12 11:09:00;;;;;;;9.13;4.93;;;;;;;-145.18;100.00;46922.16;5009466;28;20038;-72
2022/07/12 11:11:29;;;;;;;6.65;4.10;;;;;;;-145.18;100.00;46928.00;5008941;28;20073;-72